Time;durP1;ratioP1;P1;durP2;ratioP2;P2;SDS_P1;SDS_P2;PMS_P1;PMS_P2;Temp;Humidity;BMP_temperature;BMP_pressure;BME280_temperature;BME280_humidity;BME280_pressure;Samples;Min_cycle;Max_cycle;Signal;HPM_P1;HPM_P2
2023/03/12 00:00:40;;;;;;;14.25;5.68;;;2.00;99.90;;;;;;4987459;28;20119;-63
2023/03/12 00:03:06;;;;;;;8.30;5.50;;;2.00;1.00;;;;;;4989466;28;20045;-63
2023/03/12 00:05:31;;;;;;;7.72;5.10;;;1.90;14.10;;;;;;4986120;28;20050;-63
2023/03/12 00:07:58;;;;;;;9.60;4.75;;;2.00;99.90;;;;;;4991962;28;20054;-62
2023/03/12 00:10:25;;;;;;;11.90;5.38;;;1.90;99.90;;;;;;4979363;28;20580;-62
2023/03/12 00:12:51;;;;;;;11.98;5.88;;;2.00;1.00;;;;;;4987480;28;20484;-62
2023/03/12 00:15:17;;;;;;;9.50;4.72;;;1.90;1.00;;;;;;4988448;28;20568;-63
2023/03/12 00:17:43;;;;;;;17.45;5.50;;;1.90;99.90;;;;;;4989759;28;20440;-63
2023/03/12 00:20:09;;;;;;;11.63;6.00;;;2.00;99.90;;;;;;4986151;28;20050;-63
2023/03/12 00:22:35;;;;;;;11.98;5.72;;;2.10;1.00;;;;;;4989776;28;20505;-62
2023/03/12 00:25:01;;;;;;;12.27;5.82;;;2.00;1.00;;;;;;4989152;28;20121;-62
2023/03/12 00:27:27;;;;;;;10.10;5.65;;;2.00;1.00;;;;;;4990461;28;20049;-62
2023/03/12 00:29:53;;;;;;;12.30;6.32;;;2.00;66.60;;;;;;4986555;28;20038;-63
2023/03/12 00:32:19;;;;;;;12.88;6.28;;;2.10;99.90;;;;;;4988637;28;20582;-62
2023/03/12 00:34:50;;;;;;;11.90;7.28;;;2.00;99.90;;;;;;4989988;28;20058;-62
2023/03/12 00:37:16;;;;;;;12.23;5.93;;;2.00;99.90;;;;;;4990934;28;20042;-63
2023/03/12 00:39:41;;;;;;;21.02;6.07;;;2.00;99.90;;;;;;4985477;28;20050;-63
2023/03/12 00:42:07;;;;;;;15.02;6.32;;;2.00;99.90;;;;;;4991386;28;20058;-63
2023/03/12 00:44:32;;;;;;;11.05;5.97;;;1.90;99.90;;;;;;4986725;28;20134;-62
2023/03/12 00:46:58;;;;;;;8.13;5.35;;;1.90;99.90;;;;;;4983058;28;20175;-62
2023/03/12 00:49:23;;;;;;;12.95;6.00;;;1.80;99.90;;;;;;4989153;28;20052;-62
2023/03/12 00:51:49;;;;;;;12.85;5.78;;;1.60;99.90;;;;;;4982634;28;20148;-63
2023/03/12 00:54:15;;;;;;;8.35;5.05;;;1.70;99.90;;;;;;4978297;28;20039;-62
2023/03/12 00:56:40;;;;;;;9.27;5.18;;;1.70;99.90;;;;;;4990594;28;20558;-63
2023/03/12 00:59:06;;;;;;;10.20;5.22;;;1.60;99.90;;;;;;4991829;28;20492;-62
2023/03/12 01:01:31;;;;;;;8.68;5.25;;;1.60;99.90;;;;;;4988378;28;20603;-62
2023/03/12 01:03:58;;;;;;;11.38;5.60;;;1.70;99.90;;;;;;4984714;28;20475;-62
2023/03/12 01:06:24;;;;;;;7.13;4.45;;;1.60;99.90;;;;;;4982876;28;20097;-62
2023/03/12 01:08:50;;;;;;;11.73;4.80;;;1.50;99.90;;;;;;4989089;28;20042;-62
2023/03/12 01:11:18;;;;;;;6.18;4.50;;;1.70;99.90;;;;;;4986281;28;20448;-62
2023/03/12 01:13:44;;;;;;;9.18;4.28;;;1.50;99.90;;;;;;4990163;28;20038;-63
2023/03/12 01:16:10;;;;;;;12.98;4.57;;;1.50;99.90;;;;;;4989258;28;20077;-62
2023/03/12 01:18:36;;;;;;;8.93;5.25;;;1.40;99.90;;;;;;4990064;28;20544;-63
2023/03/12 01:21:02;;;;;;;7.90;4.90;;;1.50;99.90;;;;;;4987590;28;20057;-62
2023/03/12 01:23:28;;;;;;;8.60;5.07;;;1.50;99.90;;;;;;4988209;28;20455;-63
2023/03/12 01:25:58;;;;;;;10.25;5.22;;;1.60;99.90;;;;;;4985883;28;20037;-62
2023/03/12 01:28:25;;;;;;;11.95;5.20;;;1.80;99.90;;;;;;4992053;28;20504;-62
2023/03/12 01:30:50;;;;;;;9.20;4.25;;;1.70;99.90;;;;;;4994109;28;20045;-63
2023/03/12 01:33:17;;;;;;;10.23;4.43;;;1.70;99.90;;;;;;4990786;28;20409;-62
2023/03/12 01:35:43;;;;;;;10.50;4.38;;;2.00;99.90;;;;;;4988153;28;20119;-62
2023/03/12 01:38:13;;;;;;;10.32;5.28;;;1.90;99.90;;;;;;4989455;28;20507;-62
2023/03/12 01:40:41;;;;;;;14.35;5.70;;;2.00;99.90;;;;;;4990244;28;20138;-63
2023/03/12 01:43:26;;;;;;;11.85;5.93;;;2.00;99.90;;;;;;4994732;28;20752;-63
2023/03/12 01:46:04;;;;;;;7.43;4.38;;;2.10;99.90;;;;;;4985023;28;20050;-62
2023/03/12 01:48:36;;;;;;;7.47;4.13;;;2.20;99.90;;;;;;4993596;28;20038;-63
2023/03/12 01:51:03;;;;;;;8.68;4.50;;;2.20;99.90;;;;;;4993570;28;20059;-62
2023/03/12 01:53:29;;;;;;;11.55;4.75;;;2.30;99.90;;;;;;4993105;28;20078;-63
2023/03/12 01:55:57;;;;;;;10.70;4.78;;;2.30;99.90;;;;;;4990192;28;20053;-63
2023/03/12 01:58:23;;;;;;;10.57;5.55;;;2.20;99.90;;;;;;4994582;28;20046;-63
2023/03/12 02:00:48;;;;;;;8.35;5.03;;;2.30;99.90;;;;;;4992079;28;20042;-62
2023/03/12 02:03:14;;;;;;;10.60;4.97;;;2.20;99.90;;;;;;4993671;28;20068;-63
2023/03/12 02:05:52;;;;;;;8.35;5.47;;;2.30;99.90;;;;;;4992304;28;20145;-63
2023/03/12 02:08:18;;;;;;;7.45;4.63;;;2.40;99.90;;;;;;4993306;28;20105;-62
2023/03/12 02:10:44;;;;;;;8.60;5.32;;;2.30;99.90;;;;;;4993759;28;20042;-63
2023/03/12 02:13:10;;;;;;;10.02;5.07;;;2.30;99.90;;;;;;4992730;28;20117;-63
2023/03/12 02:15:37;;;;;;;12.20;5.22;;;2.40;99.90;;;;;;4993735;28;20512;-63
2023/03/12 02:18:04;;;;;;;11.02;6.00;;;2.80;99.90;;;;;;4993013;28;20042;-63
2023/03/12 02:20:44;;;;;;;7.65;5.00;;;2.30;99.90;;;;;;4992461;28;20039;-63
2023/03/12 02:23:18;;;;;;;9.40;5.75;;;2.30;99.90;;;;;;4992872;28;20566;-62
2023/03/12 02:25:49;;;;;;;12.63;5.47;;;2.30;99.90;;;;;;4994066;28;20046;-63
2023/03/12 02:28:18;;;;;;;11.23;4.88;;;2.50;99.90;;;;;;4992033;28;20070;-63
2023/03/12 02:30:48;;;;;;;11.15;4.88;;;2.50;99.90;;;;;;4993903;28;20069;-62
2023/03/12 02:33:14;;;;;;;10.73;4.82;;;2.60;99.90;;;;;;4991896;28;20378;-63
2023/03/12 02:35:41;;;;;;;6.63;4.60;;;2.60;99.90;;;;;;4993518;28;20075;-63
2023/03/12 02:38:42;;;;;;;9.38;4.50;;;2.70;99.90;;;;;;4993193;28;20061;-63
2023/03/12 02:41:12;;;;;;;9.00;4.35;;;2.60;99.90;;;;;;4993892;28;20042;-63
2023/03/12 02:43:39;;;;;;;5.57;3.88;;;2.60;99.90;;;;;;4993144;28;20495;-62
2023/03/12 02:46:06;;;;;;;10.45;3.95;;;2.70;99.90;;;;;;4993912;28;20042;-63
2023/03/12 02:48:32;;;;;;;7.43;3.42;;;2.80;99.90;;;;;;4978343;28;20109;-63
2023/03/12 02:50:58;;;;;;;13.38;3.92;;;2.80;99.90;;;;;;4991383;28;20912;-63
2023/03/12 02:53:23;;;;;;;7.90;3.20;;;2.70;99.90;;;;;;4993406;28;20492;-62
2023/03/12 02:55:49;;;;;;;9.48;3.72;;;2.80;99.90;;;;;;4991856;28;20838;-63
2023/03/12 02:58:14;;;;;;;9.13;3.67;;;2.80;99.90;;;;;;4993988;28;20057;-62
2023/03/12 03:00:40;;;;;;;7.65;3.35;;;2.80;99.90;;;;;;4989211;28;20440;-63
2023/03/12 03:03:06;;;;;;;7.63;4.45;;;2.80;99.90;;;;;;4987770;28;20042;-63
2023/03/12 03:05:31;;;;;;;4.18;3.20;;;2.80;99.90;;;;;;4990112;28;20125;-63
2023/03/12 03:07:57;;;;;;;6.88;3.78;;;2.90;99.90;;;;;;4992479;28;20042;-63
2023/03/12 03:10:22;;;;;;;7.28;3.00;;;2.80;99.90;;;;;;4993490;28;20038;-63
2023/03/12 03:12:48;;;;;;;9.57;3.58;;;2.80;99.90;;;;;;4995894;28;20399;-62
2023/03/12 03:15:14;;;;;;;7.13;3.33;;;2.70;99.90;;;;;;4992950;28;20050;-63
2023/03/12 03:17:40;;;;;;;8.35;3.17;;;2.80;99.90;;;;;;4992399;28;20455;-62
2023/03/12 03:20:09;;;;;;;5.38;3.55;;;2.90;99.90;;;;;;4992720;28;20081;-63
2023/03/12 03:22:35;;;;;;;7.10;3.05;;;2.90;99.90;;;;;;4992510;28;20050;-62
2023/03/12 03:25:02;;;;;;;5.53;3.05;;;2.90;99.90;;;;;;4992564;28;20046;-63
2023/03/12 03:27:27;;;;;;;9.75;3.40;;;2.90;1.00;;;;;;4991440;28;20500;-62
2023/03/12 03:29:53;;;;;;;8.55;3.50;;;2.90;1.00;;;;;;4992006;28;20030;-63
2023/03/12 03:32:18;;;;;;;7.25;3.78;;;2.90;1.00;;;;;;4993194;28;20174;-63
2023/03/12 03:34:44;;;;;;;5.95;3.03;;;2.90;1.00;;;;;;4991002;28;20041;-63
2023/03/12 03:37:10;;;;;;;8.85;3.53;;;2.90;1.00;;;;;;4993312;28;20030;-63
2023/03/12 03:39:35;;;;;;;6.53;3.05;;;3.00;99.90;;;;;;4992839;28;20113;-63
2023/03/12 03:42:01;;;;;;;12.02;3.60;;;2.90;99.90;;;;;;4991932;28;20038;-63
2023/03/12 03:44:26;;;;;;;8.13;4.20;;;3.00;4.30;;;;;;4990641;28;20055;-63
2023/03/12 03:46:54;;;;;;;7.15;3.97;;;3.00;99.90;;;;;;4990801;28;20045;-62
2023/03/12 03:49:19;;;;;;;7.72;3.60;;;3.00;99.60;;;;;;4991656;28;20038;-63
2023/03/12 03:51:45;;;;;;;4.53;3.53;;;3.00;1.00;;;;;;4987686;28;20034;-63
2023/03/12 03:54:11;;;;;;;5.65;3.72;;;3.00;99.90;;;;;;4984108;28;20037;-62
2023/03/12 03:56:37;;;;;;;7.60;4.43;;;2.90;99.90;;;;;;4991910;28;20126;-62
2023/03/12 03:59:03;;;;;;;6.13;4.15;;;2.90;17.60;;;;;;4992207;28;20042;-62
2023/03/12 04:01:30;;;;;;;9.82;4.53;;;2.80;1.00;;;;;;4990277;28;20034;-62
2023/03/12 04:03:56;;;;;;;9.32;4.60;;;2.80;1.00;;;;;;4991295;28;20042;-62
2023/03/12 04:06:22;;;;;;;6.15;4.03;;;2.80;99.90;;;;;;4991129;28;20456;-62
2023/03/12 04:08:47;;;;;;;6.85;4.20;;;2.80;99.90;;;;;;4991303;28;20043;-64
2023/03/12 04:11:17;;;;;;;6.85;4.43;;;2.90;99.90;;;;;;4991853;28;20042;-63
2023/03/12 04:13:43;;;;;;;8.32;4.68;;;2.80;99.90;;;;;;4981683;28;20149;-64
2023/03/12 04:16:09;;;;;;;6.30;3.67;;;2.80;99.90;;;;;;4990605;28;20034;-64
2023/03/12 04:18:35;;;;;;;6.72;3.80;;;2.90;84.20;;;;;;4989483;28;20097;-63
2023/03/12 04:21:01;;;;;;;10.05;3.92;;;2.90;7.20;;;;;;4988554;28;20038;-63
2023/03/12 04:23:34;;;;;;;7.72;4.10;;;2.90;1.00;;;;;;5073616;28;20873;-63
2023/03/12 04:26:00;;;;;;;9.00;4.72;;;3.00;1.00;;;;;;5061547;28;20494;-63
2023/03/12 04:28:25;;;;;;;7.57;3.50;;;2.90;1.00;;;;;;5051540;28;20044;-63
2023/03/12 04:31:04;;;;;;;8.95;4.53;;;2.90;99.90;;;;;;5053121;28;20048;-63
2023/03/12 04:33:32;;;;;;;9.25;4.25;;;2.90;99.90;;;;;;5048298;28;20128;-63
2023/03/12 04:35:58;;;;;;;5.40;3.65;;;2.90;99.90;;;;;;5059266;28;20091;-63
2023/03/12 04:38:24;;;;;;;7.82;4.60;;;2.90;99.90;;;;;;5065878;28;20486;-63
2023/03/12 04:41:01;;;;;;;8.70;4.40;;;2.90;99.90;;;;;;5067606;28;20029;-62
2023/03/12 04:43:28;;;;;;;9.70;4.65;;;2.90;99.90;;;;;;5067920;28;20056;-63
2023/03/12 04:45:54;;;;;;;11.88;4.88;;;2.90;99.90;;;;;;5065506;28;20044;-62
2023/03/12 04:48:20;;;;;;;10.30;4.13;;;2.90;99.90;;;;;;5067714;28;20032;-62
2023/03/12 04:50:46;;;;;;;10.68;4.30;;;2.80;99.90;;;;;;5066581;28;20037;-63
2023/03/12 04:53:11;;;;;;;8.25;4.38;;;2.90;93.10;;;;;;5083775;28;20094;-63
2023/03/12 04:55:37;;;;;;;8.80;4.15;;;2.90;77.60;;;;;;5067256;28;20063;-62
2023/03/12 04:58:03;;;;;;;9.85;4.50;;;2.80;54.20;;;;;;5066407;28;20047;-63
2023/03/12 05:00:28;;;;;;;7.85;4.40;;;2.90;29.80;;;;;;5067835;28;20036;-62
2023/03/12 05:02:54;;;;;;;9.93;4.20;;;2.90;11.50;;;;;;5067288;28;20049;-63
2023/03/12 05:05:20;;;;;;;5.07;3.88;;;2.90;1.00;;;;;;5064216;28;20036;-63
2023/03/12 05:07:45;;;;;;;7.88;4.07;;;2.90;1.00;;;;;;5067598;28;20119;-63
2023/03/12 05:10:11;;;;;;;11.57;4.60;;;2.90;1.00;;;;;;5049830;28;20380;-63
2023/03/12 05:12:36;;;;;;;8.85;4.65;;;3.00;1.00;;;;;;5058916;28;20514;-63
2023/03/12 05:15:02;;;;;;;245.80;15.63;;;2.90;1.00;;;;;;5064051;28;20037;-63
2023/03/12 05:17:28;;;;;;;8.63;4.80;;;3.20;1.00;;;;;;5066383;28;20060;-63
2023/03/12 05:19:53;;;;;;;7.93;4.53;;;3.10;1.00;;;;;;5067400;28;20041;-63
2023/03/12 05:22:19;;;;;;;11.68;4.13;;;3.00;1.00;;;;;;5051000;28;20053;-62
2023/03/12 05:24:45;;;;;;;14.55;4.78;;;3.00;1.00;;;;;;5056633;28;20351;-63
2023/03/12 05:27:10;;;;;;;9.60;5.00;;;3.00;1.00;;;;;;5063451;28;20048;-62
2023/03/12 05:29:36;;;;;;;7.32;4.70;;;3.00;1.00;;;;;;5066871;28;20103;-63
2023/03/12 05:32:02;;;;;;;9.45;4.75;;;2.90;1.00;;;;;;5064203;28;20048;-63
2023/03/12 05:34:29;;;;;;;11.45;4.47;;;3.00;1.00;;;;;;5055971;28;20372;-63
2023/03/12 05:36:56;;;;;;;6.97;4.43;;;2.90;1.00;;;;;;5050242;28;20037;-62
2023/03/12 05:39:22;;;;;;;12.75;4.13;;;2.90;1.00;;;;;;5047289;28;20383;-63
2023/03/12 05:41:48;;;;;;;10.63;4.53;;;2.90;1.00;;;;;;5052289;28;20064;-63
2023/03/12 05:44:14;;;;;;;10.07;5.07;;;3.00;99.90;;;;;;5053528;28;20075;-62
2023/03/12 05:46:41;;;;;;;8.75;5.15;;;2.90;99.90;;;;;;5052100;28;20099;-62
2023/03/12 05:49:07;;;;;;;9.77;4.50;;;3.00;99.90;;;;;;5053494;28;20041;-62
2023/03/12 05:51:34;;;;;;;11.27;5.15;;;2.90;99.90;;;;;;5053674;28;20082;-62
2023/03/12 05:54:00;;;;;;;8.68;4.35;;;3.00;99.90;;;;;;5053601;28;20040;-63
2023/03/12 05:56:25;;;;;;;10.90;5.30;;;3.00;99.90;;;;;;5044079;28;20045;-63
2023/03/12 05:58:51;;;;;;;7.22;3.75;;;3.00;99.90;;;;;;5033320;28;20430;-63
2023/03/12 06:01:25;;;;;;;5.18;3.47;;;3.10;99.90;;;;;;5032698;28;20060;-63
2023/03/12 06:03:50;;;;;;;11.20;4.63;;;3.20;99.90;;;;;;5032474;28;20069;-62
2023/03/12 06:06:16;;;;;;;7.57;4.03;;;3.10;99.90;;;;;;5044776;28;20449;-62
2023/03/12 06:08:42;;;;;;;8.05;4.13;;;3.10;99.90;;;;;;5033236;28;20049;-63
2023/03/12 06:11:08;;;;;;;11.32;3.35;;;3.20;99.90;;;;;;5033242;28;20041;-63
2023/03/12 06:13:34;;;;;;;10.27;4.25;;;3.20;99.90;;;;;;5034329;28;20148;-62
2023/03/12 06:16:03;;;;;;;5.95;3.72;;;3.30;99.90;;;;;;5045920;28;20514;-63
2023/03/12 06:18:29;;;;;;;9.35;3.80;;;3.30;99.90;;;;;;5053157;28;20458;-62
2023/03/12 06:20:54;;;;;;;9.65;4.38;;;3.30;99.90;;;;;;5053142;28;20029;-62
2023/03/12 06:23:20;;;;;;;8.18;3.80;;;3.30;99.90;;;;;;5050679;28;20056;-63
2023/03/12 06:25:45;;;;;;;6.80;3.45;;;3.40;99.90;;;;;;5039014;28;20045;-62
2023/03/12 06:28:11;;;;;;;9.98;3.88;;;3.40;99.90;;;;;;5039019;28;20402;-63
2023/03/12 06:30:37;;;;;;;6.45;3.10;;;3.30;99.90;;;;;;5032458;28;20494;-62
2023/03/12 06:33:03;;;;;;;4.97;3.13;;;3.30;99.90;;;;;;5038380;28;20080;-62
2023/03/12 06:35:29;;;;;;;10.23;3.90;;;3.40;99.90;;;;;;5031316;28;20124;-63
2023/03/12 06:37:54;;;;;;;7.20;3.75;;;3.30;99.90;;;;;;5032858;28;20507;-62
2023/03/12 06:40:20;;;;;;;12.43;4.20;;;3.40;99.90;;;;;;5032713;28;20052;-63
2023/03/12 06:42:46;;;;;;;7.20;3.53;;;3.30;1.00;;;;;;5032379;28;20095;-62
2023/03/12 06:45:11;;;;;;;9.38;4.45;;;3.30;1.00;;;;;;5031527;28;20041;-62
2023/03/12 06:47:37;;;;;;;6.20;3.00;;;3.30;1.00;;;;;;5032310;28;20111;-63
2023/03/12 06:50:03;;;;;;;7.82;3.85;;;3.20;1.00;;;;;;5032679;28;20037;-62
2023/03/12 06:52:28;;;;;;;9.75;3.72;;;3.30;1.00;;;;;;5042511;28;20121;-63
2023/03/12 06:54:54;;;;;;;5.32;3.40;;;3.20;1.00;;;;;;5052432;28;20505;-62
2023/03/12 06:57:20;;;;;;;13.18;3.55;;;3.20;1.00;;;;;;5051504;28;20453;-62
2023/03/12 06:59:45;;;;;;;7.95;3.60;;;3.20;1.10;;;;;;5052211;28;20395;-62
2023/03/12 07:02:11;;;;;;;4.75;3.33;;;3.10;58.60;;;;;;5048335;28;20037;-62
2023/03/12 07:04:37;;;;;;;11.18;3.17;;;3.00;99.90;;;;;;5042717;28;20041;-62
2023/03/12 07:07:03;;;;;;;7.18;4.05;;;3.00;99.90;;;;;;5032311;28;20040;-63
2023/03/12 07:09:29;;;;;;;9.05;3.88;;;3.00;99.90;;;;;;5030881;28;20048;-62
2023/03/12 07:11:55;;;;;;;5.07;3.20;;;2.80;99.90;;;;;;5044224;28;20399;-62
2023/03/12 07:14:20;;;;;;;8.35;4.88;;;2.60;1.00;;;;;;5036908;28;20483;-62
2023/03/12 07:16:46;;;;;;;4.88;3.55;;;2.60;1.00;;;;;;5046487;28;20036;-62
2023/03/12 07:19:12;;;;;;;8.68;4.53;;;2.50;99.90;;;;;;5051298;28;20036;-62
2023/03/12 07:21:38;;;;;;;6.32;3.80;;;2.70;1.00;;;;;;5039280;28;20403;-62
2023/03/12 07:24:06;;;;;;;8.20;4.00;;;2.90;1.00;;;;;;5040945;28;20041;-62
2023/03/12 07:26:34;;;;;;;9.95;4.13;;;2.80;99.90;;;;;;5046801;28;20045;-62
2023/03/12 07:28:59;;;;;;;7.00;3.80;;;2.70;1.00;;;;;;5045138;28;20495;-62
2023/03/12 07:31:25;;;;;;;12.98;5.65;;;2.90;82.50;;;;;;5047953;28;20041;-62
2023/03/12 07:33:51;;;;;;;8.60;4.38;;;2.90;99.90;;;;;;5040972;28;20112;-62
2023/03/12 07:36:16;;;;;;;7.88;4.00;;;2.70;1.00;;;;;;5046809;28;20086;-62
2023/03/12 07:38:42;;;;;;;11.30;6.10;;;2.80;99.90;;;;;;5045228;28;20045;-62
2023/03/12 07:41:08;;;;;;;9.93;5.18;;;2.60;1.00;;;;;;5050330;28;20040;-63
2023/03/12 07:43:33;;;;;;;11.18;5.70;;;2.70;99.90;;;;;;5045141;28;20111;-62
2023/03/12 07:45:59;;;;;;;311.75;22.55;;;2.90;1.00;;;;;;5048764;28;20056;-62
2023/03/12 07:48:24;;;;;;;9.90;5.57;;;2.90;1.00;;;;;;5049296;28;20479;-62
2023/03/12 07:50:50;;;;;;;9.95;5.95;;;2.90;99.90;;;;;;5049512;28;20043;-62
2023/03/12 07:53:16;;;;;;;9.82;4.53;;;3.20;99.90;;;;;;5034075;28;20130;-62
2023/03/12 07:55:44;;;;;;;10.15;5.43;;;3.30;99.90;;;;;;5039389;28;20049;-62
2023/03/12 07:58:11;;;;;;;10.27;5.28;;;2.70;7.30;;;;;;5031622;28;20046;-62
2023/03/12 08:00:37;;;;;;;14.05;5.65;;;2.70;99.90;;;;;;5041767;28;20037;-62
2023/03/12 08:03:02;;;;;;;8.95;5.75;;;1.80;99.90;;;;;;5040696;28;20039;-62
2023/03/12 08:05:28;;;;;;;9.35;4.43;;;3.20;99.90;;;;;;5034670;28;20041;-62
2023/03/12 08:07:54;;;;;;;10.85;6.38;;;3.00;99.90;;;;;;5031888;28;20034;-63
2023/03/12 08:10:20;;;;;;;10.75;4.30;;;3.20;99.90;;;;;;5044335;28;20063;-63
2023/03/12 08:12:45;;;;;;;7.57;5.03;;;3.40;99.90;;;;;;5033067;28;20076;-63
2023/03/12 08:15:13;;;;;;;6.28;3.80;;;2.70;99.90;;;;;;5036740;28;20483;-63
2023/03/12 08:17:39;;;;;;;7.40;4.65;;;3.40;99.90;;;;;;5034350;28;20037;-62
2023/03/12 08:20:08;;;;;;;12.77;4.63;;;2.70;99.90;;;;;;5031388;28;20037;-63
2023/03/12 08:22:34;;;;;;;9.82;5.72;;;2.60;99.90;;;;;;5043188;28;20052;-62
2023/03/12 08:25:00;;;;;;;13.88;6.35;;;3.00;99.90;;;;;;5044178;28;20059;-63
2023/03/12 08:27:25;;;;;;;8.63;5.07;;;3.00;99.90;;;;;;5040570;28;20037;-63
2023/03/12 08:29:51;;;;;;;6.07;4.45;;;2.90;99.90;;;;;;5037158;28;20091;-63
2023/03/12 08:32:17;;;;;;;6.70;4.60;;;3.70;99.90;;;;;;5043301;28;20037;-62
2023/03/12 08:34:42;;;;;;;7.68;4.88;;;2.80;99.90;;;;;;5037894;28;20415;-63
2023/03/12 08:37:08;;;;;;;6.60;4.65;;;3.60;99.90;;;;;;5048908;28;20040;-62
2023/03/12 08:39:34;;;;;;;10.02;4.72;;;3.40;99.90;;;;;;5050966;28;20041;-63
2023/03/12 08:41:59;;;;;;;12.48;6.22;;;2.80;99.90;;;;;;5044196;28;20053;-63
2023/03/12 08:44:25;;;;;;;12.85;6.25;;;3.60;99.90;;;;;;5033186;28;20053;-63
2023/03/12 08:46:51;;;;;;;14.27;7.38;;;3.60;99.90;;;;;;5039571;28;20112;-63
2023/03/12 08:49:18;;;;;;;10.38;5.60;;;3.30;99.90;;;;;;5040636;28;20120;-63
2023/03/12 08:51:43;;;;;;;9.57;4.88;;;3.10;99.90;;;;;;5050711;28;20036;-63
2023/03/12 08:54:09;;;;;;;13.07;6.90;;;3.60;99.90;;;;;;5045033;28;20053;-62
2023/03/12 08:56:37;;;;;;;8.70;5.18;;;3.10;99.90;;;;;;5034831;28;20091;-63
2023/03/12 08:59:03;;;;;;;13.73;6.53;;;2.70;99.90;;;;;;5034501;28;20042;-62
2023/03/12 09:01:28;;;;;;;17.17;8.73;;;3.20;99.90;;;;;;5042740;28;20041;-63
2023/03/12 09:03:54;;;;;;;15.38;8.07;;;2.70;99.90;;;;;;5033560;28;20045;-63
2023/03/12 09:06:20;;;;;;;13.45;6.25;;;4.00;99.90;;;;;;5040398;28;20039;-62
2023/03/12 09:08:46;;;;;;;14.00;7.15;;;3.00;99.90;;;;;;5031755;28;20038;-63
2023/03/12 09:11:13;;;;;;;8.60;5.85;;;4.00;99.90;;;;;;5040539;28;20033;-64
2023/03/12 09:13:40;;;;;;;14.60;7.15;;;2.80;99.90;;;;;;5037352;28;20068;-62
2023/03/12 09:16:06;;;;;;;10.05;7.50;;;4.50;99.90;;;;;;5042791;28;20127;-62
2023/03/12 09:18:33;;;;;;;12.38;7.25;;;4.50;99.90;;;;;;5044853;28;20072;-62
2023/03/12 09:20:59;;;;;;;20.90;12.90;;;4.70;99.90;;;;;;5040223;28;20499;-63
2023/03/12 09:23:25;;;;;;;13.65;8.77;;;3.40;99.90;;;;;;5041198;28;20114;-63
2023/03/12 09:25:51;;;;;;;21.42;13.23;;;4.60;99.90;;;;;;5050708;28;20517;-63
2023/03/12 09:28:17;;;;;;;17.38;10.18;;;4.10;99.90;;;;;;5038247;28;20037;-63
2023/03/12 09:30:42;;;;;;;13.13;8.82;;;3.50;99.90;;;;;;5047144;28;20098;-63
2023/03/12 09:33:08;;;;;;;15.00;8.88;;;5.40;99.90;;;;;;5046588;28;20045;-63
2023/03/12 09:35:35;;;;;;;15.88;8.77;;;3.80;99.90;;;;;;5052352;28;20033;-63
2023/03/12 09:38:01;;;;;;;18.02;11.38;;;3.80;99.90;;;;;;5049903;28;20049;-63
2023/03/12 09:40:30;;;;;;;18.70;11.38;;;5.70;99.90;;;;;;5038252;28;20526;-64
2023/03/12 09:43:12;;;;;;;14.68;10.75;;;5.60;99.90;;;;;;5034083;28;20111;-63
2023/03/12 09:45:43;;;;;;;19.88;13.05;;;5.90;99.90;;;;;;5047497;28;20113;-64
2023/03/12 09:48:35;;;;;;;15.65;10.07;;;5.90;99.90;;;;;;5036228;28;20041;-64
2023/03/12 09:51:19;;;;;;;13.15;9.13;;;4.00;99.90;;;;;;5030727;28;20411;-66
2023/03/12 09:53:52;;;;;;;11.50;8.90;;;6.00;99.90;;;;;;5041538;28;20026;-64
2023/03/12 09:56:19;;;;;;;13.00;8.57;;;4.30;99.90;;;;;;5041756;28;20509;-63
2023/03/12 09:58:47;;;;;;;19.40;12.05;;;5.10;99.90;;;;;;5036750;28;20045;-63
2023/03/12 10:01:18;;;;;;;16.95;12.63;;;4.30;99.90;;;;;;5049471;28;20048;-63
2023/03/12 10:04:05;;;;;;;25.63;13.75;;;6.30;99.90;;;;;;5039456;28;20138;-65
2023/03/12 10:06:49;;;;;;;23.17;16.15;;;4.30;99.90;;;;;;5040168;28;20121;-63
2023/03/12 10:09:43;;;;;;;16.45;10.50;;;6.30;99.90;;;;;;5041561;28;20041;-64
2023/03/12 10:12:49;;;;;;;16.85;11.63;;;4.40;99.90;;;;;;5033297;28;20445;-63
2023/03/12 10:15:49;;;;;;;18.60;12.27;;;6.70;99.90;;;;;;5028979;28;20073;-63
2023/03/12 10:18:20;;;;;;;17.20;13.23;;;6.60;99.90;;;;;;5039297;28;20033;-63
2023/03/12 10:20:54;;;;;;;18.80;12.65;;;6.40;99.90;;;;;;5042562;28;20045;-63
2023/03/12 10:23:54;;;;;;;39.20;21.92;;;6.20;99.90;;;;;;5040113;28;20545;-63
2023/03/12 10:26:33;;;;;;;34.80;19.88;;;4.60;99.90;;;;;;5044985;28;20037;-63
2023/03/12 10:29:20;;;;;;;30.02;15.77;;;6.30;99.90;;;;;;5045265;28;20033;-63
2023/03/12 10:32:04;;;;;;;34.42;20.80;;;7.10;99.90;;;;;;5043258;28;20056;-63
2023/03/12 10:34:36;;;;;;;30.10;18.73;;;7.20;99.90;;;;;;5041156;28;20087;-64
2023/03/12 10:37:17;;;;;;;51.42;29.67;;;5.10;99.90;;;;;;5050395;28;20056;-63
2023/03/12 10:39:44;;;;;;;56.00;25.02;;;5.00;99.90;;;;;;5043231;28;20033;-63
2023/03/12 10:42:26;;;;;;;38.05;22.90;;;5.00;99.90;;;;;;5036661;28;20069;-63
2023/03/12 10:44:57;;;;;;;118.85;28.75;;;6.40;99.90;;;;;;5041557;28;20519;-64
2023/03/12 10:47:26;;;;;;;114.13;31.13;;;5.30;99.90;;;;;;5042823;28;20051;-63
2023/03/12 10:49:52;;;;;;;54.60;27.23;;;6.20;99.90;;;;;;5043341;28;20040;-63
2023/03/12 10:52:22;;;;;;;74.30;23.60;;;5.50;99.90;;;;;;5048144;28;20498;-64
2023/03/12 10:54:50;;;;;;;92.63;27.10;;;6.50;99.90;;;;;;5035624;28;20410;-63
2023/03/12 10:57:16;;;;;;;265.80;42.03;;;6.20;99.90;;;;;;5043859;28;20826;-63
2023/03/12 10:59:45;;;;;;;142.05;29.85;;;7.40;99.90;;;;;;5034005;28;20036;-63
2023/03/12 11:02:42;;;;;;;239.20;40.55;;;8.00;99.90;;;;;;5049192;28;20041;-63
2023/03/12 11:05:24;;;;;;;40.13;20.85;;;6.40;99.90;;;;;;5040276;28;20123;-63
2023/03/12 11:07:51;;;;;;;114.03;27.27;;;6.60;99.90;;;;;;5039613;28;20041;-64
2023/03/12 11:10:25;;;;;;;66.57;23.05;;;9.10;99.90;;;;;;5049869;28;20033;-64
2023/03/12 11:13:19;;;;;;;55.80;18.25;;;8.60;99.90;;;;;;5041559;28;20045;-64
2023/03/12 11:15:45;;;;;;;91.55;22.70;;;9.10;99.90;;;;;;5049963;28;20509;-64
2023/03/12 11:18:24;;;;;;;96.38;21.40;;;9.00;99.90;;;;;;5041406;28;20036;-64
2023/03/12 11:20:51;;;;;;;120.63;23.85;;;8.40;99.90;;;;;;5041760;28;20052;-64
2023/03/12 11:23:27;;;;;;;148.68;25.00;;;7.10;99.90;;;;;;5030934;28;20145;-64
2023/03/12 11:26:20;;;;;;;89.77;20.73;;;8.90;99.90;;;;;;5039441;28;20608;-64
2023/03/12 11:29:00;;;;;;;58.97;16.23;;;9.00;99.90;;;;;;5045798;28;20044;-64
2023/03/12 11:31:33;;;;;;;63.53;14.50;;;6.30;99.90;;;;;;5040134;28;20056;-63
2023/03/12 11:34:03;;;;;;;64.63;13.18;;;9.10;99.90;;;;;;5029515;28;20033;-64
2023/03/12 11:36:50;;;;;;;69.15;17.15;;;5.80;99.90;;;;;;5045123;28;20502;-63
2023/03/12 11:39:53;;;;;;;76.07;16.50;;;9.00;99.90;;;;;;5041579;28;20041;-63
2023/03/12 11:42:25;;;;;;;53.45;13.07;;;9.40;99.90;;;;;;5036134;28;20063;-63
2023/03/12 11:44:53;;;;;;;76.03;14.73;;;8.50;99.90;;;;;;5039139;28;20033;-63
2023/03/12 11:47:47;;;;;;;60.75;13.23;;;6.90;99.90;;;;;;5038199;28;20506;-65
2023/03/12 11:50:31;;;;;;;152.68;19.67;;;9.70;99.90;;;;;;5034329;28;20487;-64
2023/03/12 11:53:26;;;;;;;66.30;13.43;;;7.20;99.90;;;;;;5045161;28;20041;-64
2023/03/12 11:56:20;;;;;;;61.08;12.13;;;7.10;99.90;;;;;;5040096;28;20441;-65
2023/03/12 11:58:54;;;;;;;57.08;11.38;;;10.50;99.90;;;;;;5039636;28;20087;-65
2023/03/12 12:01:32;;;;;;;54.38;11.82;;;9.70;99.90;;;;;;5047376;28;20457;-65
2023/03/12 12:04:34;;;;;;;55.22;12.10;;;8.00;99.90;;;;;;5047931;28;20045;-65
2023/03/12 12:07:30;;;;;;;60.85;10.77;;;7.40;99.90;;;;;;5034648;28;20040;-65
2023/03/12 12:10:29;;;;;;;47.97;9.85;;;10.30;99.90;;;;;;5034928;28;20120;-65
2023/03/12 12:13:02;;;;;;;43.58;9.32;;;9.70;99.90;;;;;;5031578;28;20148;-65
2023/03/12 12:15:33;;;;;;;46.60;9.82;;;10.50;99.90;;;;;;5030679;28;20076;-65
2023/03/12 12:18:16;;;;;;;47.92;9.65;;;7.50;99.90;;;;;;5043476;28;20079;-65
2023/03/12 12:21:26;;;;;;;46.17;9.18;;;8.40;99.90;;;;;;5045158;28;20048;-66
2023/03/12 12:24:16;;;;;;;46.20;9.88;;;7.10;99.90;;;;;;5040564;28;20507;-65
2023/03/12 12:27:05;;;;;;;57.35;9.65;;;10.60;99.90;;;;;;5032456;28;20060;-65
2023/03/12 12:30:05;;;;;;;51.97;10.40;;;10.90;99.90;;;;;;5030018;28;20033;-65
2023/03/12 12:33:01;;;;;;;48.83;8.15;;;11.10;99.90;;;;;;5029873;28;20046;-65
2023/03/12 12:35:40;;;;;;;51.72;9.75;;;11.30;99.90;;;;;;5046435;28;20040;-66
2023/03/12 12:38:40;;;;;;;61.13;11.38;;;7.90;99.90;;;;;;5032829;28;20049;-65
2023/03/12 12:41:15;;;;;;;54.65;11.18;;;9.40;99.90;;;;;;5036808;28;20045;-65
2023/03/12 12:43:59;;;;;;;48.63;10.77;;;12.00;99.90;;;;;;5034551;28;20551;-65
2023/03/12 12:46:41;;;;;;;56.45;10.18;;;8.30;99.90;;;;;;5043643;28;20121;-65
2023/03/12 12:49:17;;;;;;;57.60;9.77;;;11.10;99.90;;;;;;5038175;28;20155;-65
2023/03/12 12:51:47;;;;;;;50.60;9.20;;;8.90;99.90;;;;;;5043883;28;20089;-65
2023/03/12 12:54:32;;;;;;;48.97;9.80;;;11.30;99.90;;;;;;5050081;28;20033;-66
2023/03/12 12:57:15;;;;;;;46.28;8.88;;;10.50;99.90;;;;;;5041151;28;20156;-65
2023/03/12 13:00:14;;;;;;;51.75;10.02;;;8.10;99.90;;;;;;5044451;28;20056;-65
2023/03/12 13:02:43;;;;;;;54.13;10.88;;;8.10;99.90;;;;;;5039005;28;20044;-65
2023/03/12 13:05:26;;;;;;;54.20;11.93;;;8.20;99.90;;;;;;5040991;28;20042;-65